Colorado Springs, CO

12:45 PM MDT on September 04, 2015 (GMT -0600)
Old North End | | Change Station
CLOSE
Current Station
Personal Weather Stations
Location: Colorado Springs, CO
Elevation: 6086 ft
Nearby Weather Stations

Elev 6086 ft 38.85 °N, 104.82 °W | Updated 39 seconds ago

Utando wa mawingu
Utando wa mawingu
78.6 °F
Feels Like 79 °F
N
0.0
Upepo Ya mabadiliko Upepo from Magharibi-Kusini-Magharibi (MgKMg) WSW
Gusts 0.0 mph

Leo
High -- | Low -- °F
--% Chance of Precip.
Yesterday
High -- | Low -- °F
Precip. -- nchi
6:30 AM 7:25 PM
Waning Gibbous, 57% visible
Shinikizo 29.88 nchi
Mwangaza 10.0 meli
Clouds Few 8000 ft
Mawingu sehemu nyingi 17000 ft
Mawingu sehemu nyingi 25000 ft
Faharasi ya Ujoto 79 °F
Kilele cha umande 50 °F
Unyevu 37%
Rainfall 0.00 nchi
Snow Depth Not available.
UV 5 out of 12
Pollen 9.90 out of 12
Air Quality Not available.
Flu Activity Not available.
METAR KCOS 041754Z 17006KT 10SM FEW080 BKN170 BKN250 23/09 A3012 RMK AO2 SLP117 T02330094 10244 20128
Shinikizo 29.88 nchi
Mwangaza 10.0 meli
Clouds Few 8000 ft
Mawingu sehemu nyingi 17000 ft
Mawingu sehemu nyingi 25000 ft
Faharasi ya Ujoto 79 °F
Kilele cha umande 50 °F
Unyevu 37%
Rainfall 0.00 nchi
Snow Depth Not available.
UV 5 out of 12
Pollen 9.90 out of 12
Air Quality Not available.
Flu Activity Not available.
METAR KCOS 041754Z 17006KT 10SM FEW080 BKN170 BKN250 23/09 A3012 RMK AO2 SLP117 T02330094 10244 20128

10-Day Weather Forecast

×

Almanac

Astronomy

Sep. 04, 2015 Rise Set
Actual Time
Civil Twilight
Nautical Twilight
Astronomical Twilight
Moon
Length Of Visible Light
Length of Day
Tomorrow will be .
, % of the Moon is Illuminated

Today's Extremes

State Highs State Lows

Community

WunderPhotos

Upload Photos

1,852,262 photos uploaded!

WunderBlogs® & News

Nearby

Air Quality

  Air Quality AQ Index Pollutant
Not available.

Snow Depth

Station Depth Elevation

Earthquake Activity

City Distance Mag. Time & Date
Minimum magnitude displayed is 2.5.

Coastal Water Temperatures

Mahali Hali ya Hewa

Stations

Nearby Weather Stations

Station Location Temp Ubaridi wa upepo Kilele cha umande Unyevu Upepo Precip. Elev Imesharekibishwa Type